Time;durP1;ratioP1;P1;durP2;ratioP2;P2;SDS_P1;SDS_P2;PMS_P1;PMS_P2;Temp;Humidity;BMP_temperature;BMP_pressure;BME280_temperature;BME280_humidity;BME280_pressure;Samples;Min_cycle;Max_cycle;Signal;HPM_P1;HPM_P2
2020/12/05 03:34:52;;;;;;;7.80;5.40;;;6.20;67.90;;;;;;5252628;23;20222;-86
2020/12/05 10:25:04;;;;;;;4.82;2.90;;;7.00;67.40;;;;;;5039928;28;20258;-86
2020/12/05 10:53:29;;;;;;;1.75;1.27;;;7.10;65.70;;;;;;5108534;23;20247;-89
2020/12/05 10:55:55;;;;;;;3.10;1.83;;;7.30;65.50;;;;;;4997094;28;20187;-86
2020/12/05 10:58:21;;;;;;;5.83;1.97;;;7.40;64.90;;;;;;4990630;28;20214;-84
2020/12/05 11:00:50;;;;;;;2.43;2.13;;;7.10;64.40;;;;;;4994626;28;20465;-85
2020/12/05 11:03:16;;;;;;;3.08;1.80;;;7.20;64.30;;;;;;4986995;28;20224;-84
2020/12/05 11:12:13;;;;;;;3.22;1.73;;;7.10;64.00;;;;;;5057183;23;20241;-84
2020/12/05 11:14:39;;;;;;;2.43;1.53;;;7.30;64.30;;;;;;4996115;28;20183;-83
2020/12/05 11:17:04;;;;;;;2.27;1.97;;;7.30;63.80;;;;;;4995530;28;20182;-84
2020/12/05 11:19:30;;;;;;;2.47;1.90;;;7.20;63.50;;;;;;4994625;28;20199;-84
2020/12/05 11:21:56;;;;;;;8.73;2.47;;;7.30;63.50;;;;;;4990639;28;20176;-84
2020/12/05 11:24:21;;;;;;;2.13;1.80;;;7.20;63.20;;;;;;4999751;28;20179;-85
2020/12/05 11:26:47;;;;;;;1.73;1.63;;;7.20;63.40;;;;;;5000351;28;20167;-86
2020/12/05 11:29:13;;;;;;;4.00;3.70;;;7.10;63.30;;;;;;4999739;28;20231;-84
2020/12/05 11:31:39;;;;;;;3.60;1.40;;;7.10;63.10;;;;;;4999252;28;20410;-87
2020/12/05 11:34:04;;;;;;;4.57;1.20;;;7.20;62.60;;;;;;4998327;28;20455;-85
2020/12/05 11:36:31;;;;;;;3.00;1.53;;;7.10;62.30;;;;;;5015623;28;20176;-85
2020/12/05 11:42:19;;;;;;;3.85;1.40;;;7.20;62.00;;;;;;5018762;28;20194;-84
2020/12/05 11:44:45;;;;;;;1.30;1.20;;;7.30;61.70;;;;;;4994544;28;20652;-84
2020/12/05 11:47:10;;;;;;;2.47;1.20;;;7.50;61.80;;;;;;4984886;28;20194;-83
2020/12/05 11:49:36;;;;;;;6.63;1.23;;;7.70;61.70;;;;;;4977689;28;20231;-84
2020/12/05 11:52:02;;;;;;;1.83;1.70;;;7.80;61.40;;;;;;4976677;28;20600;-85
2020/12/05 11:54:27;;;;;;;1.87;1.70;;;7.90;60.70;;;;;;4977164;28;20183;-85
2020/12/05 11:56:53;;;;;;;7.00;1.70;;;7.90;60.40;;;;;;4986419;28;20179;-85
2020/12/05 11:59:19;;;;;;;11.63;2.27;;;7.90;60.00;;;;;;4980181;28;20605;-84
2020/12/05 12:01:45;;;;;;;2.00;1.50;;;7.80;60.00;;;;;;4990023;28;20217;-84
2020/12/05 12:04:10;;;;;;;2.87;1.50;;;7.80;60.00;;;;;;5001598;28;20206;-84
2020/12/05 12:06:36;;;;;;;5.90;1.83;;;7.80;59.90;;;;;;5017360;28;20208;-85
2020/12/05 12:09:02;;;;;;;3.20;1.50;;;7.90;60.20;;;;;;4999901;28;20199;-83
2020/12/05 12:11:28;;;;;;;3.40;1.75;;;8.00;60.10;;;;;;4987209;28;20462;-84
2020/12/05 12:13:54;;;;;;;4.30;1.97;;;8.00;59.90;;;;;;4960592;28;20184;-84
2020/12/05 12:16:20;;;;;;;2.50;1.50;;;8.00;60.00;;;;;;4959993;28;20184;-84
2020/12/05 12:18:45;;;;;;;3.67;1.60;;;8.20;60.10;;;;;;4960512;28;20477;-85
2020/12/05 12:21:11;;;;;;;5.20;1.60;;;8.20;59.70;;;;;;4966083;28;20175;-90
2020/12/05 12:23:38;;;;;;;1.48;1.38;;;8.20;59.70;;;;;;4991394;28;20180;-91
2020/12/05 12:26:31;;;;;;;3.53;1.67;;;8.20;59.70;;;;;;5000349;28;20266;-91
2020/12/05 12:29:01;;;;;;;5.38;1.50;;;8.30;59.60;;;;;;4990285;28;20218;-91
2020/12/05 12:34:51;;;;;;;2.50;2.10;;;8.20;59.40;;;;;;4986185;28;20183;-90
2020/12/05 12:37:21;;;;;;;5.00;1.50;;;8.10;59.30;;;;;;4970609;28;22150;-93
2020/12/05 12:39:47;;;;;;;2.45;1.58;;;8.10;59.80;;;;;;4979186;28;20250;-91
2020/12/05 12:42:13;;;;;;;3.63;1.87;;;8.10;59.90;;;;;;4967941;28;20745;-92
2020/12/05 12:44:39;;;;;;;3.63;1.70;;;8.10;59.90;;;;;;4969867;28;20414;-92
2020/12/05 12:49:37;;;;;;;3.78;1.63;;;7.90;59.50;;;;;;4987455;28;20195;-93
2020/12/05 12:52:07;;;;;;;2.80;1.85;;;8.00;59.60;;;;;;4987292;28;20307;-93
2020/12/05 12:54:34;;;;;;;2.05;1.38;;;8.10;59.60;;;;;;4980222;28;20179;-92
2020/12/05 12:57:00;;;;;;;5.10;1.92;;;8.00;59.70;;;;;;4979227;28;20204;-93
2020/12/05 12:59:26;;;;;;;1.40;1.20;;;8.10;60.00;;;;;;4981348;28;20208;-92
2020/12/05 13:01:57;;;;;;;4.13;2.10;;;8.10;59.70;;;;;;4991775;28;20187;-92
2020/12/05 13:04:22;;;;;;;2.85;1.80;;;8.10;59.90;;;;;;4991121;28;20206;-92
2020/12/05 13:06:58;;;;;;;4.37;2.00;;;8.10;60.10;;;;;;4982953;28;20192;-92
2020/12/05 13:09:26;;;;;;;1.73;1.35;;;8.20;59.90;;;;;;4979862;28;20430;-93
2020/12/05 13:11:53;;;;;;;7.50;1.48;;;8.20;59.90;;;;;;4988268;28;20326;-91
2020/12/05 13:14:19;;;;;;;3.95;1.83;;;8.20;59.80;;;;;;4983418;28;20195;-93
2020/12/05 13:16:46;;;;;;;10.18;1.85;;;8.20;59.70;;;;;;4990726;28;20229;-94
2020/12/05 13:19:17;;;;;;;2.22;1.60;;;8.10;60.40;;;;;;4987082;28;20207;-96
2020/12/05 13:21:52;;;;;;;1.70;1.35;;;8.00;59.70;;;;;;4983643;28;20172;-96
2020/12/05 13:24:47;;;;;;;1.60;1.30;;;8.00;59.90;;;;;;4983428;28;20187;-96
2020/12/05 13:27:35;;;;;;;5.15;1.88;;;8.00;60.10;;;;;;4969757;28;20171;-95
2020/12/05 13:30:10;;;;;;;1.50;1.40;;;8.30;60.40;;;;;;5019887;28;20218;-95
2020/12/05 13:32:50;;;;;;;4.75;2.08;;;8.00;60.00;;;;;;5020652;28;20151;-96
2020/12/05 13:35:43;;;;;;;1.52;1.20;;;8.20;60.10;;;;;;4988442;28;20247;-96
2020/12/05 13:38:22;;;;;;;3.45;1.55;;;8.20;60.40;;;;;;5009486;28;20223;-96
2020/12/05 13:41:16;;;;;;;3.28;1.40;;;8.30;60.30;;;;;;5002826;28;20593;-95
2020/12/05 13:44:08;;;;;;;3.03;1.67;;;8.50;60.50;;;;;;5002511;28;20163;-95
2020/12/05 13:46:34;;;;;;;2.70;2.00;;;8.50;60.40;;;;;;5000922;28;20197;-91
2020/12/05 13:48:59;;;;;;;2.70;1.50;;;8.40;60.40;;;;;;5001068;28;20639;-92
2020/12/05 13:51:35;;;;;;;1.50;1.40;;;8.50;60.50;;;;;;5001702;28;20436;-93
2020/12/05 13:54:02;;;;;;;7.35;1.60;;;8.50;60.30;;;;;;5002386;28;20189;-92
2020/12/05 13:56:29;;;;;;;5.65;1.50;;;8.40;60.30;;;;;;5005154;28;20635;-92
2020/12/05 13:58:55;;;;;;;5.28;1.73;;;8.40;60.30;;;;;;5004927;28;20217;-92
2020/12/05 14:01:33;;;;;;;4.38;3.45;;;8.40;60.40;;;;;;4988672;28;20215;-93
2020/12/05 14:04:00;;;;;;;2.05;1.80;;;8.50;60.70;;;;;;4970931;28;20202;-93
2020/12/05 14:06:26;;;;;;;2.75;1.90;;;8.50;60.80;;;;;;4970903;28;20172;-92
2020/12/05 14:08:52;;;;;;;5.20;1.80;;;8.60;61.00;;;;;;4967377;28;20199;-93
2020/12/05 14:11:21;;;;;;;2.47;1.60;;;8.40;60.50;;;;;;4968313;28;20196;-92
2020/12/05 14:13:47;;;;;;;6.50;1.77;;;8.30;60.80;;;;;;4968460;28;20208;-92
2020/12/05 14:16:13;;;;;;;1.83;1.73;;;8.50;60.90;;;;;;4972030;28;20727;-92
2020/12/05 14:18:39;;;;;;;2.07;1.50;;;8.50;60.50;;;;;;4968775;28;20990;-93
2020/12/05 14:21:05;;;;;;;2.43;1.40;;;8.50;60.50;;;;;;4968227;28;20419;-92
2020/12/05 14:23:30;;;;;;;2.07;1.70;;;8.50;60.20;;;;;;4961826;28;20180;-90
2020/12/05 14:25:56;;;;;;;2.27;1.43;;;8.50;60.10;;;;;;4961991;28;20419;-89
2020/12/05 14:28:22;;;;;;;3.33;2.13;;;8.60;60.30;;;;;;4961541;28;20188;-90
2020/12/05 14:30:47;;;;;;;2.53;1.47;;;8.60;60.30;;;;;;4978770;28;20232;-88
2020/12/05 14:33:16;;;;;;;2.07;1.57;;;8.50;60.20;;;;;;4960611;28;20640;-90
2020/12/05 14:35:46;;;;;;;1.55;1.45;;;8.50;60.00;;;;;;4996796;28;20614;-90
2020/12/05 14:38:12;;;;;;;2.03;1.80;;;8.60;60.20;;;;;;4999863;28;20209;-90
2020/12/05 14:40:38;;;;;;;2.63;1.80;;;8.60;60.20;;;;;;4998297;28;20201;-89
2020/12/05 14:43:04;;;;;;;2.58;2.08;;;8.50;60.20;;;;;;4998725;28;20173;-90
2020/12/05 14:45:30;;;;;;;2.20;1.87;;;8.60;60.40;;;;;;4998783;28;20179;-89
2020/12/05 14:47:55;;;;;;;4.30;2.17;;;8.60;60.40;;;;;;4997812;28;20425;-90
2020/12/05 14:50:21;;;;;;;1.67;1.57;;;8.50;60.40;;;;;;4993995;28;20294;-89
2020/12/05 14:52:47;;;;;;;2.93;1.70;;;8.50;60.60;;;;;;4994542;28;20186;-89
2020/12/05 14:55:14;;;;;;;2.70;1.57;;;8.50;60.90;;;;;;4994936;28;20426;-90
2020/12/05 14:57:40;;;;;;;4.63;1.70;;;8.60;61.10;;;;;;4994250;28;20801;-90
2020/12/05 15:00:07;;;;;;;2.35;2.03;;;8.50;61.10;;;;;;4995528;28;20593;-90
2020/12/05 15:02:32;;;;;;;5.75;1.90;;;8.60;61.30;;;;;;4994773;28;20179;-90
2020/12/05 15:04:58;;;;;;;2.60;1.97;;;8.60;61.50;;;;;;4994662;28;20205;-90
2020/12/05 15:07:24;;;;;;;2.70;1.83;;;8.60;61.50;;;;;;4995042;28;20183;-90
2020/12/05 15:09:55;;;;;;;2.30;2.10;;;8.60;61.70;;;;;;4994523;28;20529;-89
2020/12/05 15:12:21;;;;;;;4.00;1.90;;;8.60;61.70;;;;;;4985170;28;20325;-89
2020/12/05 15:14:47;;;;;;;5.87;2.97;;;8.60;61.80;;;;;;4973353;28;20227;-90
2020/12/05 15:17:12;;;;;;;3.70;2.70;;;8.60;61.80;;;;;;4958450;28;20176;-90
2020/12/05 15:19:38;;;;;;;5.00;3.87;;;8.60;61.90;;;;;;4957906;28;20199;-89
2020/12/05 15:22:05;;;;;;;5.37;3.63;;;8.60;61.80;;;;;;4974603;28;20179;-89
2020/12/05 15:24:31;;;;;;;9.55;3.20;;;8.60;62.00;;;;;;4999712;28;20171;-89
2020/12/05 15:26:57;;;;;;;4.97;2.70;;;8.60;62.20;;;;;;4998479;28;20241;-90
2020/12/05 15:29:23;;;;;;;5.60;3.40;;;8.60;62.40;;;;;;4998056;28;20438;-90
2020/12/05 15:31:49;;;;;;;4.68;4.18;;;8.60;62.20;;;;;;5001585;28;20209;-90
2020/12/05 15:34:15;;;;;;;7.27;3.77;;;8.60;62.10;;;;;;4990506;28;20186;-89
2020/12/05 15:36:45;;;;;;;15.73;7.37;;;8.60;62.10;;;;;;5002015;28;20182;-89
2020/12/05 15:39:13;;;;;;;12.70;6.10;;;8.60;62.10;;;;;;5000735;28;20469;-92
2020/12/05 15:41:39;;;;;;;11.15;4.10;;;8.60;62.20;;;;;;5000323;28;20232;-90
2020/12/05 15:44:05;;;;;;;7.03;3.90;;;8.60;62.30;;;;;;5003159;28;20171;-90
2020/12/05 15:46:31;;;;;;;11.07;4.47;;;8.60;62.40;;;;;;5001274;28;20896;-89
2020/12/05 15:48:57;;;;;;;5.10;3.57;;;8.60;62.70;;;;;;5001318;28;20237;-90
2020/12/05 15:51:22;;;;;;;10.40;5.00;;;8.60;62.90;;;;;;5001459;28;20182;-90
2020/12/05 15:53:49;;;;;;;6.70;3.87;;;8.60;63.20;;;;;;5002641;28;20228;-90
2020/12/05 15:56:16;;;;;;;8.27;4.85;;;8.60;63.40;;;;;;5001464;28;20179;-91
2020/12/05 15:58:42;;;;;;;7.80;4.38;;;8.60;63.50;;;;;;5002516;28;20209;-90
2020/12/05 16:01:08;;;;;;;8.15;4.68;;;8.60;63.40;;;;;;5004094;28;20642;-90
2020/12/05 16:03:34;;;;;;;10.43;6.00;;;8.70;63.40;;;;;;5001643;28;20229;-92
2020/12/05 16:05:59;;;;;;;23.73;8.87;;;8.60;63.10;;;;;;5002841;28;20269;-92
2020/12/05 16:08:26;;;;;;;12.87;8.10;;;8.70;63.00;;;;;;5002669;28;20182;-91
2020/12/05 16:10:55;;;;;;;15.95;9.60;;;8.60;62.70;;;;;;4999932;28;20434;-91
2020/12/05 16:13:21;;;;;;;12.05;7.70;;;8.60;63.00;;;;;;5000596;28;20189;-91
2020/12/05 16:15:47;;;;;;;15.40;9.30;;;8.60;63.10;;;;;;5001714;28;20178;-90
2020/12/05 16:18:12;;;;;;;18.30;10.87;;;8.70;63.20;;;;;;5000615;28;20202;-90
2020/12/05 16:20:38;;;;;;;12.43;9.13;;;8.70;63.20;;;;;;4999820;28;20194;-91
2020/12/05 16:23:04;;;;;;;13.67;9.47;;;8.70;63.10;;;;;;5000579;28;20305;-90
2020/12/05 16:25:30;;;;;;;21.05;13.13;;;8.70;63.10;;;;;;5004031;28;20497;-89
2020/12/05 16:27:55;;;;;;;13.07;7.77;;;8.60;63.10;;;;;;5001361;28;20190;-90
2020/12/05 16:30:22;;;;;;;15.53;8.87;;;8.60;63.10;;;;;;5000687;28;20199;-89
2020/12/05 16:32:48;;;;;;;14.00;8.32;;;8.60;63.00;;;;;;4999497;28;20180;-90
2020/12/05 16:35:13;;;;;;;23.13;11.43;;;8.70;63.10;;;;;;5000058;28;20190;-90
2020/12/05 16:37:39;;;;;;;31.17;16.60;;;8.70;63.10;;;;;;4999967;28;20294;-90
2020/12/05 16:40:09;;;;;;;31.77;18.50;;;8.70;63.20;;;;;;4999512;28;20289;-90
2020/12/05 16:42:35;;;;;;;23.48;15.80;;;8.70;63.20;;;;;;4999270;28;20448;-90
2020/12/05 16:45:02;;;;;;;20.52;12.88;;;8.60;63.10;;;;;;5017009;28;20194;-89
2020/12/05 16:47:28;;;;;;;20.08;13.38;;;8.60;63.00;;;;;;4999437;28;20549;-89
2020/12/05 16:49:54;;;;;;;18.33;12.07;;;8.60;63.00;;;;;;5018197;28;20209;-90
2020/12/05 16:52:19;;;;;;;20.07;10.93;;;8.60;63.10;;;;;;4999654;28;20268;-91
2020/12/05 16:54:45;;;;;;;15.10;8.70;;;8.60;63.00;;;;;;5000505;28;20233;-90
2020/12/05 16:57:11;;;;;;;14.93;9.60;;;8.60;63.00;;;;;;5005389;28;20214;-91
2020/12/05 16:59:37;;;;;;;13.40;9.20;;;8.40;62.90;;;;;;5005580;28;20230;-91
2020/12/05 17:02:03;;;;;;;16.10;10.07;;;8.40;63.20;;;;;;5005009;28;20187;-90
2020/12/05 17:04:29;;;;;;;19.90;11.73;;;8.40;63.40;;;;;;5003705;28;20179;-90
2020/12/05 17:06:55;;;;;;;25.03;13.37;;;8.40;63.50;;;;;;5022854;28;20429;-94
2020/12/05 17:09:21;;;;;;;18.60;14.40;;;8.40;63.60;;;;;;5023900;28;20438;-92
2020/12/05 17:11:50;;;;;;;21.67;10.87;;;8.40;63.60;;;;;;5023619;28;20198;-91
2020/12/05 17:14:16;;;;;;;11.35;9.20;;;8.40;63.50;;;;;;5023913;28;20159;-91
2020/12/05 17:16:41;;;;;;;16.20;10.98;;;8.50;63.70;;;;;;5024031;28;20190;-93
2020/12/05 17:19:07;;;;;;;12.37;9.27;;;8.40;63.50;;;;;;5016567;28;20226;-91
2020/12/05 17:21:33;;;;;;;38.23;17.80;;;8.40;63.40;;;;;;5009908;28;20460;-91
2020/12/05 17:23:59;;;;;;;27.57;17.73;;;8.40;63.40;;;;;;5005179;28;20182;-89
2020/12/05 17:26:24;;;;;;;23.90;13.43;;;8.40;63.40;;;;;;5006827;28;20221;-91
2020/12/05 17:28:50;;;;;;;20.30;12.67;;;8.40;63.60;;;;;;5022897;28;20194;-90
2020/12/05 17:31:16;;;;;;;17.10;12.40;;;8.40;63.60;;;;;;5005433;28;20178;-90
2020/12/05 17:33:42;;;;;;;17.80;11.83;;;8.40;63.50;;;;;;5007818;28;20425;-91
2020/12/05 17:36:08;;;;;;;14.73;10.53;;;8.60;63.70;;;;;;5007810;28;20248;-91
2020/12/05 17:38:35;;;;;;;17.38;10.70;;;8.40;64.20;;;;;;5011229;28;20978;-91
2020/12/05 17:41:01;;;;;;;17.15;12.38;;;8.50;63.50;;;;;;5011656;28;20233;-92
2020/12/05 17:43:27;;;;;;;26.23;14.40;;;8.40;63.10;;;;;;5006729;28;20182;-90
2020/12/05 17:45:53;;;;;;;27.77;17.95;;;8.40;63.00;;;;;;5001289;28;20624;-91
2020/12/05 17:48:19;;;;;;;25.15;16.90;;;8.40;63.00;;;;;;5001344;28;20186;-89
2020/12/05 17:50:45;;;;;;;29.00;18.70;;;8.40;63.00;;;;;;4988782;28;20219;-90
2020/12/05 17:53:10;;;;;;;34.17;19.00;;;8.40;63.00;;;;;;4981196;28;20187;-91
2020/12/05 17:55:36;;;;;;;26.70;16.90;;;8.40;62.80;;;;;;4967922;28;20278;-91
2020/12/05 17:58:02;;;;;;;21.90;14.13;;;8.50;62.80;;;;;;4982897;28;20311;-91
2020/12/05 18:00:44;;;;;;;24.97;16.67;;;8.40;62.80;;;;;;4983801;28;21025;-91
2020/12/05 18:03:10;;;;;;;21.10;14.38;;;8.40;62.80;;;;;;4990454;28;20502;-90
2020/12/05 18:05:36;;;;;;;21.50;13.00;;;8.50;62.70;;;;;;4998016;28;20183;-91
2020/12/05 18:08:01;;;;;;;27.50;14.10;;;8.50;62.60;;;;;;5002687;28;20186;-90
2020/12/05 18:10:27;;;;;;;17.73;12.60;;;8.50;63.60;;;;;;4999911;28;20199;-90
2020/12/05 18:12:53;;;;;;;30.20;13.43;;;8.50;62.80;;;;;;4967840;28;20204;-92
2020/12/05 18:15:19;;;;;;;20.07;13.57;;;8.50;62.70;;;;;;4964255;28;20176;-90
2020/12/05 18:17:45;;;;;;;18.63;14.27;;;8.50;62.40;;;;;;4970934;28;20465;-90
2020/12/05 18:20:11;;;;;;;18.60;13.90;;;8.50;62.20;;;;;;4964156;28;20200;-90
2020/12/05 18:22:39;;;;;;;25.83;15.80;;;8.50;61.80;;;;;;4962220;28;20622;-90
2020/12/05 18:25:06;;;;;;;24.17;16.15;;;8.50;61.80;;;;;;4961509;28;20262;-90
2020/12/05 18:27:34;;;;;;;27.75;18.00;;;8.50;61.70;;;;;;4960911;28;20188;-90
2020/12/05 18:29:59;;;;;;;29.23;18.13;;;8.60;61.70;;;;;;4960773;28;20199;-91
2020/12/05 18:32:25;;;;;;;17.13;11.60;;;8.50;61.70;;;;;;4960769;28;20698;-91
2020/12/05 18:34:51;;;;;;;16.10;9.73;;;8.50;62.10;;;;;;4960347;28;20176;-91
2020/12/05 18:37:17;;;;;;;12.27;7.90;;;8.50;61.20;;;;;;4960917;28;20435;-90
2020/12/05 18:39:45;;;;;;;21.65;11.63;;;8.50;61.20;;;;;;4961790;28;20686;-93
2020/12/05 18:42:11;;;;;;;16.48;10.15;;;8.50;61.30;;;;;;4960456;28;20179;-90
2020/12/05 18:44:37;;;;;;;16.13;9.30;;;8.50;61.20;;;;;;4959758;28;20176;-91
2020/12/05 18:47:02;;;;;;;11.17;7.47;;;8.50;61.20;;;;;;4959354;28;20176;-91
2020/12/05 18:49:31;;;;;;;12.40;8.90;;;8.50;61.30;;;;;;4959296;28;20231;-90
2020/12/05 18:51:57;;;;;;;13.00;9.27;;;8.50;61.00;;;;;;4963544;28;20419;-91
2020/12/05 18:54:23;;;;;;;13.20;10.32;;;8.50;61.20;;;;;;4999451;28;20270;-91
2020/12/05 18:56:48;;;;;;;14.50;9.43;;;8.50;61.00;;;;;;4998358;28;20657;-91
2020/12/05 18:59:14;;;;;;;15.33;9.77;;;8.50;61.20;;;;;;5000567;28;20705;-91
2020/12/05 19:01:43;;;;;;;16.93;8.60;;;8.50;61.90;;;;;;5001129;28;20309;-91
2020/12/05 19:04:08;;;;;;;16.20;9.38;;;8.50;60.90;;;;;;5003027;28;20202;-90
2020/12/05 19:06:35;;;;;;;19.03;9.83;;;8.50;60.70;;;;;;4999464;28;20281;-91
2020/12/05 19:09:02;;;;;;;13.73;8.05;;;8.50;60.50;;;;;;4985050;28;20202;-91
2020/12/05 19:11:28;;;;;;;15.27;8.57;;;8.40;60.50;;;;;;4992833;28;20253;-91
2020/12/05 19:13:54;;;;;;;15.10;9.30;;;8.50;60.80;;;;;;4978800;28;20186;-91
2020/12/05 19:16:21;;;;;;;15.88;9.20;;;8.50;60.60;;;;;;4978693;28;20187;-91
2020/12/05 19:18:47;;;;;;;31.77;14.90;;;8.40;60.50;;;;;;4973991;28;20247;-91
2020/12/05 19:21:13;;;;;;;18.80;9.80;;;8.40;60.60;;;;;;4983588;28;20183;-91
2020/12/05 19:23:41;;;;;;;17.73;9.00;;;8.40;60.40;;;;;;4996886;28;20552;-90
2020/12/05 19:26:07;;;;;;;18.45;10.23;;;8.40;60.40;;;;;;4990877;28;20179;-91
2020/12/05 19:28:33;;;;;;;25.50;15.63;;;8.40;60.40;;;;;;4978435;28;20186;-91
2020/12/05 19:30:58;;;;;;;16.27;9.97;;;8.40;60.50;;;;;;4979015;28;20450;-90
2020/12/05 19:33:24;;;;;;;21.57;8.40;;;8.40;60.60;;;;;;4978457;28;20187;-90
2020/12/05 19:35:50;;;;;;;15.10;9.70;;;8.40;60.80;;;;;;4978892;28;20179;-90
2020/12/05 19:38:15;;;;;;;54.10;23.80;;;8.40;61.00;;;;;;4978408;28;20275;-91
2020/12/05 19:40:41;;;;;;;30.73;16.97;;;8.40;60.90;;;;;;4979011;28;20195;-90
2020/12/05 19:43:07;;;;;;;37.63;18.03;;;8.40;60.70;;;;;;4979016;28;20210;-91
2020/12/05 19:45:33;;;;;;;25.73;15.50;;;8.40;60.90;;;;;;4981052;28;20481;-90
2020/12/05 19:47:59;;;;;;;28.63;18.63;;;8.40;60.90;;;;;;4978518;28;20187;-90
2020/12/05 19:50:25;;;;;;;31.83;17.25;;;8.40;60.90;;;;;;4979394;28;20442;-90
2020/12/05 19:52:51;;;;;;;24.13;12.30;;;8.40;61.00;;;;;;4961351;28;20195;-90
2020/12/05 19:55:17;;;;;;;33.83;14.60;;;8.40;60.80;;;;;;4960040;28;20423;-89
2020/12/05 19:57:43;;;;;;;31.20;17.75;;;8.30;60.70;;;;;;4959293;28;20206;-90
2020/12/05 20:00:12;;;;;;;26.47;14.40;;;8.30;60.70;;;;;;4962035;28;20567;-91
2020/12/05 20:02:38;;;;;;;29.00;14.40;;;8.40;60.90;;;;;;4959280;28;20176;-90
2020/12/05 20:05:06;;;;;;;31.88;15.90;;;8.30;60.90;;;;;;4959647;28;20188;-89
2020/12/05 20:07:31;;;;;;;18.98;11.10;;;8.30;60.70;;;;;;4965090;28;20418;-90
2020/12/05 20:10:04;;;;;;;21.70;11.83;;;8.40;60.60;;;;;;4969869;28;20214;-89
2020/12/05 20:12:30;;;;;;;18.15;11.07;;;8.30;60.40;;;;;;4969800;28;20514;-89
2020/12/05 20:14:56;;;;;;;20.98;11.93;;;8.20;60.40;;;;;;4969414;28;20184;-90
2020/12/05 20:17:22;;;;;;;16.20;11.02;;;8.20;60.50;;;;;;4975696;28;20453;-91
2020/12/05 20:19:48;;;;;;;17.75;10.40;;;8.20;60.50;;;;;;4977023;28;20196;-90
2020/12/05 20:22:15;;;;;;;22.93;13.43;;;8.20;60.50;;;;;;4975490;28;20202;-89
2020/12/05 20:24:40;;;;;;;24.25;13.70;;;8.10;60.40;;;;;;4966591;28;20434;-88
2020/12/05 20:27:06;;;;;;;23.20;13.40;;;8.10;60.60;;;;;;4985882;28;20663;-92
2020/12/05 20:29:32;;;;;;;24.40;12.83;;;8.00;60.50;;;;;;5002257;28;20506;-93
2020/12/05 20:31:58;;;;;;;24.05;13.27;;;8.00;60.60;;;;;;5003157;28;20183;-93
2020/12/05 20:34:24;;;;;;;25.77;15.00;;;8.00;60.90;;;;;;5003791;28;20267;-92
2020/12/05 20:36:49;;;;;;;18.60;12.40;;;8.00;60.60;;;;;;5003342;28;20166;-93
2020/12/05 20:39:16;;;;;;;14.23;11.70;;;7.90;60.50;;;;;;5003487;28;20581;-93
2020/12/05 20:41:45;;;;;;;16.95;10.95;;;7.90;60.60;;;;;;5002939;28;20172;-94
2020/12/05 20:44:11;;;;;;;13.88;9.30;;;8.00;60.80;;;;;;5020671;28;20167;-96
2020/12/05 20:46:37;;;;;;;15.37;9.80;;;7.80;60.70;;;;;;5005148;28;20163;-95
2020/12/05 20:49:03;;;;;;;20.52;10.70;;;7.80;60.50;;;;;;5004965;28;20214;-96
2020/12/05 20:51:29;;;;;;;18.33;10.60;;;7.90;60.80;;;;;;5004770;28;20179;-96
2020/12/05 20:53:54;;;;;;;20.03;12.40;;;7.80;60.90;;;;;;5004608;28;20190;-96
2020/12/05 20:56:20;;;;;;;20.50;12.10;;;7.80;61.20;;;;;;5004826;28;20430;-96
2020/12/05 20:58:46;;;;;;;22.08;11.10;;;7.80;61.10;;;;;;5004647;28;20486;-96
2020/12/05 21:01:12;;;;;;;18.67;12.13;;;7.70;60.90;;;;;;5004157;28;20162;-96
2020/12/05 21:03:38;;;;;;;18.03;13.87;;;7.70;61.20;;;;;;5004643;28;20439;-96
2020/12/05 21:06:05;;;;;;;15.60;10.55;;;7.80;61.30;;;;;;4988526;28;20422;-96
2020/12/05 21:08:31;;;;;;;14.80;11.48;;;7.60;61.30;;;;;;4988507;28;20179;-96
2020/12/05 21:10:57;;;;;;;18.95;12.23;;;7.50;61.30;;;;;;5004320;28;20210;-96
2020/12/05 21:20:13;;;;;;;17.73;10.23;;;7.50;61.30;;;;;;5021145;28;20203;-96
2020/12/05 21:22:39;;;;;;;21.55;11.80;;;7.40;61.60;;;;;;5004044;28;20187;-96
2020/12/05 21:31:07;;;;;;;23.30;13.90;;;7.50;61.60;;;;;;5216110;23;20220;-95
2020/12/05 21:33:32;;;;;;;17.75;13.20;;;7.50;61.60;;;;;;4980458;28;20257;-95
2020/12/05 21:35:59;;;;;;;31.70;18.00;;;7.50;61.80;;;;;;4979843;28;20181;-95
2020/12/05 21:41:35;;;;;;;37.13;19.05;;;7.50;61.50;;;;;;5025190;23;20222;-94
2020/12/05 21:44:01;;;;;;;32.00;18.60;;;7.40;61.40;;;;;;5003641;28;20218;-96
2020/12/05 21:46:27;;;;;;;27.73;18.98;;;7.40;61.50;;;;;;5003283;28;20199;-95
